Time;durP1;ratioP1;P1;durP2;ratioP2;P2;SDS_P1;SDS_P2;PMS_P1;PMS_P2;Temp;Humidity;BMP_temperature;BMP_pressure;BME280_temperature;BME280_humidity;BME280_pressure;Samples;Min_cycle;Max_cycle;Signal;HPM_P1;HPM_P2
2024/04/09 00:02:29;;;;;;;0.20;0.20;;;;;;;17.52;62.82;100221.06;15617460;28;20057;-53
2024/04/09 00:10:07;;;;;;;40.03;1.92;;;;;;;17.28;63.03;100226.16;15610821;28;20100;-48
2024/04/09 00:17:45;;;;;;;0.30;0.30;;;;;;;17.43;63.05;100233.53;15612053;28;20045;-50
2024/04/09 00:25:23;;;;;;;0.85;0.85;;;;;;;16.99;63.83;100228.50;15607873;28;20060;-51
2024/04/09 00:32:56;;;;;;;0.10;0.10;;;;;;;16.85;64.97;100225.47;15615809;28;20045;-53
2024/04/09 00:40:36;;;;;;;0.43;0.30;;;;;;;16.64;65.80;100219.09;15615075;28;20038;-50
2024/04/09 00:48:12;;;;;;;8.18;0.85;;;;;;;16.49;66.11;100200.06;15608492;28;20042;-52
2024/04/09 00:55:49;;;;;;;0.25;0.25;;;;;;;16.45;66.04;100207.06;15607841;28;20478;-50
2024/04/09 01:03:23;;;;;;;0.38;0.38;;;;;;;16.34;66.50;100214.31;15609309;28;20128;-55
2024/04/09 01:10:59;;;;;;;2.28;0.80;;;;;;;16.36;66.57;100216.75;15613449;28;20052;-53
2024/04/09 01:18:38;;;;;;;0.00;0.00;;;;;;;16.18;67.34;100215.28;15614603;28;20099;-53
2024/04/09 01:26:14;;;;;;;0.68;0.40;;;;;;;16.20;67.29;100213.97;15613928;28;20061;-52
2024/04/09 01:33:47;;;;;;;1.92;0.70;;;;;;;16.25;67.32;100208.56;15607171;28;20095;-50
2024/04/09 01:41:23;;;;;;;0.38;0.38;;;;;;;16.18;67.10;100199.88;15608834;28;20041;-52
2024/04/09 01:48:57;;;;;;;0.43;0.43;;;;;;;16.35;66.87;100209.72;15609077;28;20072;-51
2024/04/09 01:56:32;;;;;;;0.10;0.10;;;;;;;16.28;66.80;100205.34;15611237;28;20617;-51
2024/04/09 02:04:07;;;;;;;0.30;0.30;;;;;;;16.17;67.40;100214.47;15604467;28;20125;-52
2024/04/09 02:11:43;;;;;;;1.48;1.33;;;;;;;15.95;68.19;100217.31;15612712;28;20509;-52
2024/04/09 02:19:18;;;;;;;0.47;0.47;;;;;;;15.85;68.69;100205.56;15589039;28;20038;-50
2024/04/09 02:26:54;;;;;;;4.20;0.40;;;;;;;15.74;68.82;100196.53;15605908;28;20117;-51
2024/04/09 02:34:28;;;;;;;26.63;1.38;;;;;;;15.64;69.53;100210.81;15607697;28;20037;-52
2024/04/09 02:42:05;;;;;;;1.35;0.65;;;;;;;15.62;69.29;100204.81;15606785;28;20517;-52
2024/04/09 02:49:39;;;;;;;1.40;1.00;;;;;;;15.52;69.77;100188.47;15610553;28;20041;-52
2024/04/09 02:57:15;;;;;;;0.10;0.10;;;;;;;15.30;70.46;100192.06;15602407;28;20065;-52
2024/04/09 03:04:51;;;;;;;1.85;0.98;;;;;;;15.22;71.03;100191.69;15606667;28;20037;-53
2024/04/09 03:12:27;;;;;;;0.52;0.45;;;;;;;15.17;70.97;100195.16;15616572;28;20441;-53
2024/04/09 03:20:01;;;;;;;0.10;0.10;;;;;;;15.18;70.90;100191.38;15605245;28;20046;-51
2024/04/09 03:27:36;;;;;;;4.22;1.65;;;;;;;15.10;71.17;100194.53;15606199;28;20045;-54
2024/04/09 03:35:10;;;;;;;0.43;0.35;;;;;;;15.02;71.21;100197.69;15602636;28;20099;-52
2024/04/09 03:42:47;;;;;;;0.30;0.30;;;;;;;14.87;71.88;100183.97;15619363;28;20172;-55
2024/04/09 03:50:20;;;;;;;0.90;0.90;;;;;;;14.87;72.04;100189.38;15605746;28;20107;-54
2024/04/09 03:57:55;;;;;;;1.08;0.75;;;;;;;14.85;72.10;100173.44;15605038;28;20064;-53
2024/04/09 04:05:30;;;;;;;0.30;0.30;;;;;;;14.75;72.14;100173.31;15590903;28;20098;-52
2024/04/09 04:13:05;;;;;;;1.35;0.80;;;;;;;14.74;72.23;100163.59;15600477;28;20037;-50
2024/04/09 04:20:39;;;;;;;1.83;1.33;;;;;;;14.85;72.06;100164.50;15604470;28;20486;-53
2024/04/09 04:28:14;;;;;;;0.40;0.40;;;;;;;14.79;72.54;100159.06;15608445;28;20196;-49
2024/04/09 04:35:47;;;;;;;1.13;0.40;;;;;;;14.82;72.82;100159.59;15613088;28;20068;-52
2024/04/09 04:43:24;;;;;;;1.33;1.05;;;;;;;14.89;72.53;100152.94;15614129;28;20612;-50
2024/04/09 04:50:59;;;;;;;0.30;0.30;;;;;;;14.98;72.14;100145.22;15607093;28;20045;-52
2024/04/09 04:58:34;;;;;;;0.93;0.50;;;;;;;14.95;72.56;100143.81;15610723;28;20079;-54
2024/04/09 05:06:19;;;;;;;1.15;0.75;;;;;;;15.22;72.34;100137.63;15613118;28;20144;-55
2024/04/09 05:13:55;;;;;;;1.10;1.00;;;;;;;15.43;72.56;100142.13;15603195;28;20041;-51
2024/04/09 05:21:28;;;;;;;0.17;0.17;;;;;;;15.67;72.21;100139.94;15613259;28;20029;-55
2024/04/09 05:29:04;;;;;;;1.50;1.40;;;;;;;15.88;71.50;100140.09;15613085;28;20084;-53
2024/04/09 05:36:38;;;;;;;3.83;0.95;;;;;;;16.11;71.37;100145.13;15613914;28;20075;-54
2024/04/09 05:44:13;;;;;;;0.47;0.35;;;;;;;16.41;72.01;100152.59;15604277;28;20651;-50
2024/04/09 05:51:48;;;;;;;1.08;1.00;;;;;;;16.80;70.61;100150.38;15612178;28;20410;-53
2024/04/09 05:59:23;;;;;;;0.90;0.90;;;;;;;17.00;70.84;100152.31;15609673;28;20041;-54
2024/04/09 06:06:58;;;;;;;0.50;0.50;;;;;;;17.31;69.71;100142.38;15611622;28;20051;-56
2024/04/09 06:14:36;;;;;;;2.50;1.63;;;;;;;16.93;70.68;100140.13;15610994;28;20037;-53
2024/04/09 06:22:10;;;;;;;0.40;0.30;;;;;;;17.41;69.96;100143.47;15612313;28;20061;-52
2024/04/09 06:29:46;;;;;;;1.38;1.17;;;;;;;17.57;70.25;100142.38;15611440;28;20157;-52
2024/04/09 06:37:20;;;;;;;2.42;1.13;;;;;;;17.91;69.03;100147.28;15608292;28;20034;-54
2024/04/09 06:44:55;;;;;;;1.60;1.08;;;;;;;18.72;66.82;100144.38;15606801;28;20064;-51
2024/04/09 06:52:29;;;;;;;0.20;0.20;;;;;;;18.96;66.45;100135.53;15589902;28;20124;-53
2024/04/09 07:00:06;;;;;;;0.57;0.50;;;;;;;20.30;62.25;100120.56;15607864;28;20048;-56
2024/04/09 07:07:41;;;;;;;2.13;1.30;;;;;;;20.31;62.02;100117.53;15605918;28;20041;-49
2024/04/09 07:15:16;;;;;;;0.63;0.63;;;;;;;21.05;59.41;100115.25;15607341;28;20037;-55
2024/04/09 07:22:54;;;;;;;3.35;1.10;;;;;;;21.96;57.17;100112.13;15605047;28;20042;-56
2024/04/09 07:30:29;;;;;;;0.75;0.73;;;;;;;22.34;55.99;100110.09;15604920;28;20034;-51
2024/04/09 07:38:09;;;;;;;0.43;0.27;;;;;;;22.08;55.93;100117.13;15606329;28;20041;-55
2024/04/09 07:45:45;;;;;;;0.08;0.08;;;;;;;22.51;54.92;100094.97;15598986;28;20046;-55
2024/04/09 07:53:20;;;;;;;0.93;0.55;;;;;;;23.22;53.45;100093.41;15599261;28;20033;-54
2024/04/09 08:01:02;;;;;;;0.57;0.50;;;;;;;23.76;51.93;100086.06;15606168;28;20038;-51
2024/04/09 08:08:36;;;;;;;0.93;0.63;;;;;;;24.42;51.81;100083.47;15611043;28;20445;-50
2024/04/09 08:16:12;;;;;;;3.58;0.95;;;;;;;24.43;49.05;100088.66;15616129;28;20045;-53
2024/04/09 08:23:46;;;;;;;0.52;0.45;;;;;;;24.84;47.03;100061.88;15613663;28;20041;-56
2024/04/09 08:31:31;;;;;;;0.45;0.43;;;;;;;25.01;49.46;100088.56;15616355;28;20095;-53
2024/04/09 08:39:05;;;;;;;0.55;0.32;;;;;;;25.37;47.87;100091.00;15614781;28;20124;-53
2024/04/09 08:46:41;;;;;;;0.45;0.45;;;;;;;25.72;47.12;100088.97;15612727;28;20045;-52
2024/04/09 08:54:14;;;;;;;0.52;0.52;;;;;;;26.32;45.46;100079.72;15611478;28;20048;-52
2024/04/09 09:01:49;;;;;;;0.55;0.10;;;;;;;26.33;45.29;100075.81;15620815;28;20109;-54
2024/04/09 09:09:28;;;;;;;0.35;0.20;;;;;;;27.34;43.17;100062.00;15612433;28;20063;-54
2024/04/09 09:17:09;;;;;;;6.10;1.57;;;;;;;27.43;43.20;100059.97;15616414;28;20136;-53
2024/04/09 09:24:43;;;;;;;0.20;0.20;;;;;;;27.28;42.49;100057.03;15615892;28;20518;-55
2024/04/09 09:32:21;;;;;;;0.10;0.10;;;;;;;27.09;42.95;100061.09;15617748;28;20037;-56
2024/04/09 09:39:57;;;;;;;0.70;0.40;;;;;;;27.61;41.74;100052.31;15616978;28;20080;-53
2024/04/09 09:47:33;;;;;;;0.47;0.47;;;;;;;27.28;41.86;100038.56;15677955;23;20044;-55
2024/04/09 09:55:08;;;;;;;0.77;0.43;;;;;;;27.46;39.90;100033.66;15673842;28;20037;-51
2024/04/09 10:02:46;;;;;;;0.82;0.77;;;;;;;28.34;38.78;100018.47;15671581;28;20045;-51
2024/04/09 10:10:28;;;;;;;0.68;0.52;;;;;;;29.12;36.71;100038.53;15667397;28;20025;-51
2024/04/09 10:18:07;;;;;;;0.20;0.20;;;;;;;29.04;38.77;100036.72;15672002;28;20039;-47
2024/04/09 10:25:44;;;;;;;0.40;0.40;;;;;;;29.18;37.61;100037.13;15657895;28;20053;-53
2024/04/09 10:33:43;;;;;;;0.95;0.88;;;;;;;29.45;35.91;100025.22;15661973;28;20033;-53
2024/04/09 10:41:16;;;;;;;0.52;0.50;;;;;;;29.18;37.85;100039.88;15655746;28;20045;-51
2024/04/09 10:48:51;;;;;;;0.57;0.45;;;;;;;29.22;35.73;100038.84;15663755;28;20209;-55
2024/04/09 10:56:25;;;;;;;17.92;0.73;;;;;;;28.95;35.11;100048.72;15671606;28;20060;-51
2024/04/09 11:04:00;;;;;;;0.73;0.65;;;;;;;28.73;35.20;100044.53;15663069;28;20046;-49
2024/04/09 11:11:35;;;;;;;10.05;1.17;;;;;;;29.71;35.50;100048.84;15669123;28;20044;-53
2024/04/09 11:19:10;;;;;;;1.05;0.47;;;;;;;29.50;34.48;100038.00;15670924;28;20033;-52
2024/04/09 11:26:45;;;;;;;2.40;1.40;;;;;;;29.48;34.99;100059.69;15662831;28;20045;-49
2024/04/09 11:34:29;;;;;;;4.68;0.52;;;;;;;29.87;34.29;100059.91;15670642;28;20434;-54
2024/04/09 11:42:03;;;;;;;4.28;1.48;;;;;;;30.84;33.63;100047.19;15677673;28;20629;-55
2024/04/09 11:49:38;;;;;;;15.95;1.52;;;;;;;29.92;34.65;100043.03;15674438;28;20033;-49
2024/04/09 11:57:13;;;;;;;0.55;0.55;;;;;;;29.47;36.42;100035.94;15671898;28;20121;-52
2024/04/09 12:04:48;;;;;;;3.25;0.60;;;;;;;30.29;34.93;100040.00;15671247;28;20049;-50
2024/04/09 12:12:22;;;;;;;3.72;0.93;;;;;;;30.02;36.19;100055.53;15672494;28;20076;-53
2024/04/09 12:19:57;;;;;;;0.45;0.38;;;;;;;29.85;33.89;100060.28;15678079;28;20048;-51
2024/04/09 12:27:32;;;;;;;3.72;1.17;;;;;;;28.82;37.71;100073.94;15681237;28;20204;-49
2024/04/09 12:35:09;;;;;;;0.32;0.32;;;;;;;28.89;37.93;100074.97;15676288;28;20041;-49
2024/04/09 12:42:44;;;;;;;0.25;0.25;;;;;;;27.58;41.40;100094.34;15666722;28;20038;-48
2024/04/09 12:50:20;;;;;;;0.60;0.52;;;;;;;27.25;41.42;100101.81;15662060;28;20067;-51
2024/04/09 12:57:55;;;;;;;8.02;3.13;;;;;;;26.58;40.66;100095.28;15676837;28;20048;-50
2024/04/09 13:05:30;;;;;;;2.25;0.98;;;;;;;26.98;36.11;100128.72;15662566;28;20052;-53
2024/04/09 13:13:04;;;;;;;1.42;1.27;;;;;;;26.08;35.90;100157.34;15643267;28;20115;-54
2024/04/09 13:20:40;;;;;;;2.13;0.85;;;;;;;25.71;37.10;100158.84;15670745;28;20052;-49
2024/04/09 13:28:14;;;;;;;3.63;0.95;;;;;;;25.67;38.46;100180.66;15677542;28;20079;-49
2024/04/09 13:35:50;;;;;;;30.88;0.90;;;;;;;26.23;38.57;100204.69;15676378;28;20124;-52
2024/04/09 13:43:25;;;;;;;12.82;0.70;;;;;;;25.66;40.25;100238.72;15590081;28;20091;-50
2024/04/09 13:51:00;;;;;;;1.45;1.02;;;;;;;25.79;40.89;100247.97;15553175;28;20044;-53
2024/04/09 13:58:34;;;;;;;5.13;1.20;;;;;;;23.83;44.26;100272.81;15552818;28;20466;-52
2024/04/09 14:06:11;;;;;;;0.52;0.38;;;;;;;23.91;45.08;100294.00;15551833;28;20114;-49
2024/04/09 14:13:49;;;;;;;1.35;1.25;;;;;;;22.85;47.57;100299.78;15551873;28;20077;-49
2024/04/09 14:21:26;;;;;;;0.17;0.10;;;;;;;22.71;46.52;100327.13;15558069;28;20085;-48
2024/04/09 14:29:00;;;;;;;0.77;0.55;;;;;;;23.33;46.75;100338.53;15550500;28;20045;-51
2024/04/09 14:36:37;;;;;;;0.32;0.32;;;;;;;22.63;47.58;100342.31;15550615;28;20092;-46
2024/04/09 14:44:12;;;;;;;0.88;0.57;;;;;;;22.06;49.26;100352.50;15550327;28;20081;-47
2024/04/09 14:51:47;;;;;;;0.00;0.00;;;;;;;22.15;47.61;100353.50;15549943;28;20041;-46
2024/04/09 15:00:59;;;;;;;0.35;0.32;;;;;;;22.01;48.90;100355.31;16852745;26;20318;-47
2024/04/09 15:08:35;;;;;;;0.30;0.30;;;;;;;22.14;49.42;100329.16;16707411;21;20013;-50
2024/04/09 15:16:17;;;;;;;0.85;0.70;;;;;;;22.07;49.69;100395.13;16530469;26;20338;-51
2024/04/09 15:23:54;;;;;;;0.10;0.10;;;;;;;21.21;51.59;100437.91;16616474;26;20009;-52
2024/04/09 15:31:32;;;;;;;0.00;0.00;;;;;;;21.09;51.06;100451.97;16633347;26;20005;-52
2024/04/09 15:39:09;;;;;;;0.43;0.25;;;;;;;21.15;51.83;100477.28;16608995;26;20020;-49
2024/04/09 15:46:47;;;;;;;0.50;0.47;;;;;;;20.59;53.61;100483.19;16614281;26;20016;-50
2024/04/09 15:54:26;;;;;;;0.10;0.10;;;;;;;20.52;53.53;100485.44;16619525;26;20412;-53
2024/04/09 16:02:06;;;;;;;0.00;0.00;;;;;;;20.58;53.66;100515.09;16612889;26;20001;-53
2024/04/09 16:09:41;;;;;;;0.57;0.57;;;;;;;20.51;53.73;100554.69;16560235;26;20454;-51
2024/04/09 16:17:19;;;;;;;0.30;0.30;;;;;;;20.53;53.97;100566.13;16504245;26;20070;-50
2024/04/09 16:24:57;;;;;;;2.50;0.65;;;;;;;20.67;53.19;100588.16;16575849;26;20001;-49
2024/04/09 16:32:39;;;;;;;0.00;0.00;;;;;;;21.34;52.08;100587.44;16565007;26;20232;-50
2024/04/09 16:40:16;;;;;;;0.00;0.00;;;;;;;20.54;54.33;100592.31;16527664;26;20316;-51
2024/04/09 16:47:54;;;;;;;0.00;0.00;;;;;;;19.98;55.47;100606.91;16523733;26;20076;-50
2024/04/09 16:55:29;;;;;;;0.68;0.15;;;;;;;19.59;56.81;100642.91;16544727;26;20005;-50
2024/04/09 17:03:09;;;;;;;0.00;0.00;;;;;;;18.93;59.80;100685.50;16577543;26;20044;-53
2024/04/09 17:10:44;;;;;;;0.60;0.38;;;;;;;17.46;60.92;100735.81;16508646;26;20005;-51
2024/04/09 17:18:23;;;;;;;0.10;0.10;;;;;;;17.10;58.22;100753.56;16578281;26;20001;-51
2024/04/09 17:26:02;;;;;;;0.00;0.00;;;;;;;16.85;57.24;100778.50;16535403;26;20010;-50
2024/04/09 17:33:41;;;;;;;0.00;0.00;;;;;;;16.87;56.61;100791.78;16579054;26;20514;-49
2024/04/09 17:41:17;;;;;;;0.30;0.15;;;;;;;16.37;56.89;100803.47;16561572;26;20020;-50
2024/04/09 17:48:55;;;;;;;0.00;0.00;;;;;;;15.65;57.93;100782.50;16545285;26;20020;-50
2024/04/09 17:56:32;;;;;;;0.00;0.00;;;;;;;15.28;58.89;100829.66;16568348;26;20005;-51
2024/04/09 18:04:11;;;;;;;0.00;0.00;;;;;;;15.50;58.34;100856.06;16553647;26;20338;-49
2024/04/09 18:11:48;;;;;;;0.00;0.00;;;;;;;15.62;57.13;100889.31;16519882;26;20017;-53
2024/04/09 18:19:26;;;;;;;0.00;0.00;;;;;;;15.01;56.71;100915.88;16519701;26;20012;-51
2024/04/09 18:27:07;;;;;;;;;;;;;;;15.29;54.02;100944.06;16537975;26;20016;-51
2024/04/09 18:34:45;;;;;;;0.10;0.10;;;;;;;15.04;54.42;100952.41;16524941;26;19926;-49
2024/04/09 18:42:21;;;;;;;0.10;0.10;;;;;;;15.13;54.23;100969.94;16547982;26;20099;-55
2024/04/09 18:49:59;;;;;;;0.00;0.00;;;;;;;15.30;51.45;100995.22;16524141;26;20002;-55
2024/04/09 18:57:35;;;;;;;0.03;0.03;;;;;;;15.73;49.40;101021.09;16532738;26;20005;-50
2024/04/09 19:05:13;;;;;;;0.00;0.00;;;;;;;15.21;48.93;101012.84;16547215;26;20001;-52
2024/04/09 19:12:51;;;;;;;0.00;0.00;;;;;;;14.38;50.36;101034.47;16520682;26;20436;-50
2024/04/09 19:20:29;;;;;;;0.00;0.00;;;;;;;14.38;50.66;101066.88;16543017;26;20009;-50
2024/04/09 19:28:06;;;;;;;0.00;0.00;;;;;;;13.71;51.21;101073.03;16550209;26;20480;-50
2024/04/09 19:35:45;;;;;;;0.00;0.00;;;;;;;13.36;54.56;101077.28;16507864;26;20017;-52
2024/04/09 19:43:21;;;;;;;0.00;0.00;;;;;;;13.06;58.16;101099.47;16549541;26;20096;-49
2024/04/09 19:51:03;;;;;;;0.00;0.00;;;;;;;13.27;57.99;101123.38;16505383;26;20009;-53
2024/04/09 19:58:46;;;;;;;0.00;0.00;;;;;;;13.09;57.95;101128.66;16508681;26;20006;-54
2024/04/09 20:06:25;;;;;;;0.00;0.00;;;;;;;13.13;58.89;101135.25;16544613;26;20028;-49
2024/04/09 20:14:03;;;;;;;0.00;0.00;;;;;;;13.07;57.90;101127.22;16527570;26;20143;-49
2024/04/09 20:21:44;;;;;;;0.75;0.63;;;;;;;13.58;56.73;101131.66;16564327;26;20001;-51
2024/04/09 20:29:20;;;;;;;0.00;0.00;;;;;;;12.80;58.49;101146.22;16525564;26;20462;-49
2024/04/09 20:37:00;;;;;;;0.00;0.00;;;;;;;12.83;57.94;101153.91;16539247;26;20005;-53
2024/04/09 20:44:37;;;;;;;0.10;0.10;;;;;;;12.68;59.24;101175.72;16568902;26;20001;-53
2024/04/09 20:52:16;;;;;;;5.03;0.68;;;;;;;13.14;58.56;101166.56;16544986;26;20027;-50
2024/04/09 20:59:54;;;;;;;0.00;0.00;;;;;;;13.23;57.42;101175.25;16543878;26;20005;-52
2024/04/09 21:07:33;;;;;;;0.00;0.00;;;;;;;13.13;58.42;101177.56;16552752;26;20012;-50
2024/04/09 21:15:10;;;;;;;0.00;0.00;;;;;;;12.88;58.33;101175.63;16553396;26;20001;-50
2024/04/09 21:22:49;;;;;;;0.00;0.00;;;;;;;12.85;58.36;101194.09;16498754;26;20451;-50
2024/04/09 21:30:26;;;;;;;0.00;0.00;;;;;;;12.90;59.15;101196.97;16531098;26;20016;-49
2024/04/09 21:38:05;;;;;;;0.00;0.00;;;;;;;12.67;59.25;101210.94;16552588;26;20094;-49
2024/04/09 21:45:41;;;;;;;0.00;0.00;;;;;;;12.41;60.14;101211.84;16542339;26;20024;-49
2024/04/09 21:53:19;;;;;;;0.00;0.00;;;;;;;12.59;59.59;101197.69;16507378;26;20424;-47
2024/04/09 22:00:55;;;;;;;0.00;0.00;;;;;;;12.42;60.81;101224.25;16548354;26;20418;-48
2024/04/09 22:08:51;;;;;;;0.00;0.00;;;;;;;12.35;61.47;101226.13;16526908;26;20602;-49
2024/04/09 22:16:44;;;;;;;0.00;0.00;;;;;;;12.85;60.19;101246.09;16533363;26;20001;-50
2024/04/09 22:24:40;;;;;;;0.40;0.10;;;;;;;12.66;60.73;101247.81;16510338;26;20006;-48
2024/04/09 22:32:34;;;;;;;0.00;0.00;;;;;;;12.57;61.25;101242.88;16523920;26;20013;-48
2024/04/09 22:40:30;;;;;;;0.00;0.00;;;;;;;12.95;60.57;101245.63;16499029;26;20021;-50
2024/04/09 22:48:07;;;;;;;0.00;0.00;;;;;;;12.71;61.72;101258.78;16531404;26;19997;-51
2024/04/09 22:55:45;;;;;;;1.17;0.43;;;;;;;12.38;61.76;101245.38;16541854;26;20425;-48
2024/04/09 23:03:20;;;;;;;0.00;0.00;;;;;;;12.25;63.45;101251.59;16530888;26;20041;-47
2024/04/09 23:11:08;;;;;;;0.00;0.00;;;;;;;11.83;65.88;101262.78;16531955;26;20005;-51
2024/04/09 23:18:44;;;;;;;0.00;0.00;;;;;;;12.04;68.12;101283.31;16552688;26;20037;-50
2024/04/09 23:26:22;;;;;;;0.00;0.00;;;;;;;12.28;66.46;101289.94;16512796;26;19997;-51
2024/04/09 23:34:01;;;;;;;0.00;0.00;;;;;;;12.02;67.84;101329.22;16550932;26;20012;-50
2024/04/09 23:41:40;;;;;;;0.00;0.00;;;;;;;12.10;67.11;101337.13;16553233;26;20005;-48
2024/04/09 23:49:16;;;;;;;0.08;0.08;;;;;;;12.26;66.85;101341.25;16548127;26;20006;-50
2024/04/09 23:57:11;;;;;;;0.13;0.13;;;;;;;12.11;67.28;101338.75;16552568;26;20056;-51
